首页
METAR-TAF:

METAR-TAF

机场 :

爱德华·劳伦斯·洛根将军国际机场

波士顿, 马萨诸塞州, 美国

纬度: 42-21-38N, 经度: 071-00-38W, 海拔: 6米

当前天气观测

该预报发布于1小时和4分钟前的05:54 UTC
风速6节,风向
温度 13°C
湿度 72%
气压 1019 hPa
能見度: 16.1公里
多云层高于11000英尺
阴天层高于25000英尺

METAR: KBOS 190554Z 17006KT 10SM BKN110 OVC250 13/08 A3008 RMK AO2 SLP184 T01280078 10144 20117 58006

时间: 02:58 (06:58 UTC)

预报

该预报发布于1小时和19分钟前的05:39 UTC
预报有效从19日的 06点(UTC)到 20日的 12点(UTC)
风速6节,风向东转东南
能見度: 10公里
多云层高于10000英尺
阴天层高于25000英尺
从 19日的 1200点(UTC)
风速8节,风向
能見度: 10公里
多云层高于12000英尺
阴天层高于25000英尺
从 19日的 1600点(UTC)
风速12节,风向,有时为21节阵风
能見度: 8.0公里
多云层高于6000英尺
小阵雨
从 19日的 1800点(UTC)
风速14节,风向,有时为23节阵风
能見度: 10公里
多云层高于15000英尺
从 20日的 0400点(UTC)
风速9节,风向南转西南
能見度: 10公里
阴天层高于800英尺
附近有阵雨
从 20日的 0600点(UTC)
风速10节,风向南转西南,有时为18节阵风
能見度: 10公里
阴天层高于1200英尺
附近有阵雨
从 20日的 1100点(UTC)
风速9节,风向南转西南
能見度: 6.4公里
阴天层高于700英尺
小阵雨, 轻雾

TAF: KBOS 190539Z 1906/2012 12006KT P6SM BKN100 OVC250 FM191200 17008KT P6SM BKN120 OVC250 FM191600 19012G21KT 5SM -SHRA BKN060 FM191800 19014G23KT P6SM BKN150 FM200400 20009KT P6SM VCSH OVC008 FM200600 21010G18KT P6SM VCSH OVC012 FM201100 21009KT 4SM -SHRA BR OVC007

超过4000个机场的气象观测和天气预报(METAR&TAF报告)。

可查询的气象台以黄色和红色小点在地图上表示。

将鼠标移到小点上方,可查看气象台名称。

然后点击查看天气观测和预报。

如需切换地图:点击带黑十字的绿色按钮放大地图;点击带横线的绿色按钮缩小地图;或者点击绿色箭头查看邻近地区的地图。


METAR-TAF: